createdAt,value
2022-08-21T00:01:03.503Z,15.97
2022-08-21T00:03:10.822Z,15.91
2022-08-21T00:05:12.401Z,15.89
2022-08-21T00:07:14.295Z,15.88
2022-08-21T00:09:15.805Z,15.89
2022-08-21T00:11:18.130Z,15.88
2022-08-21T00:13:20.922Z,15.85
2022-08-21T00:15:27.337Z,15.80
2022-08-21T00:17:28.877Z,15.76
2022-08-21T00:19:31.056Z,15.75
2022-08-21T00:21:33.568Z,15.75
2022-08-21T00:23:36.335Z,15.75
2022-08-21T00:25:38.893Z,15.73
2022-08-21T00:27:42.971Z,15.69
2022-08-21T00:29:44.695Z,15.68
2022-08-21T00:31:46.609Z,15.68
2022-08-21T00:33:48.146Z,15.68
2022-08-21T00:35:49.685Z,15.68
2022-08-21T00:37:51.238Z,15.67
2022-08-21T00:39:54.264Z,15.65
2022-08-21T00:41:56.040Z,15.63
2022-08-21T00:43:57.745Z,15.60
2022-08-21T00:45:59.678Z,15.57
2022-08-21T00:48:01.708Z,15.53
2022-08-21T00:50:05.995Z,15.49
2022-08-21T00:52:11.908Z,15.45
2022-08-21T00:54:18.841Z,15.42
2022-08-21T00:56:22.408Z,15.42
2022-08-21T00:58:25.372Z,15.40
2022-08-21T01:00:31.429Z,15.36
2022-08-21T01:02:32.913Z,15.32
2022-08-21T01:04:35.422Z,15.29
2022-08-21T01:06:36.913Z,15.27
2022-08-21T01:08:38.827Z,15.25
2022-08-21T01:10:48.929Z,15.24
2022-08-21T01:12:57.271Z,15.22
2022-08-21T01:14:59.710Z,15.19
2022-08-21T01:17:04.084Z,15.16
2022-08-21T01:19:07.373Z,15.14
2022-08-21T01:21:16.960Z,15.11
2022-08-21T01:23:18.466Z,15.09
2022-08-21T01:25:22.923Z,15.08
2022-08-21T01:27:24.543Z,15.08
2022-08-21T01:29:51.199Z,15.08
2022-08-21T01:31:52.731Z,15.08
2022-08-21T01:33:55.423Z,15.05
2022-08-21T01:35:57.452Z,15.05
2022-08-21T01:37:59.176Z,15.03
2022-08-21T01:40:00.982Z,15.03
2022-08-21T01:42:03.045Z,14.98
2022-08-21T01:44:05.460Z,14.98
2022-08-21T01:46:07.307Z,14.96
2022-08-21T01:48:08.832Z,14.96
2022-08-21T01:50:13.071Z,14.94
2022-08-21T01:52:14.626Z,14.93
2022-08-21T01:54:16.314Z,14.93
2022-08-21T01:56:18.545Z,14.92
2022-08-21T01:58:20.240Z,14.91
2022-08-21T02:00:26.274Z,14.91
2022-08-21T02:02:27.827Z,14.89
2022-08-21T02:04:29.396Z,14.88
2022-08-21T02:06:30.905Z,14.86
2022-08-21T02:08:32.824Z,14.83
2022-08-21T02:10:34.415Z,14.81
2022-08-21T02:12:36.178Z,14.80
2022-08-21T02:14:38.402Z,14.77
2022-08-21T02:16:41.874Z,14.76
2022-08-21T02:18:44.210Z,14.75
2022-08-21T02:20:48.750Z,14.73
2022-08-21T02:22:57.588Z,14.72
2022-08-21T02:24:59.203Z,14.69
2022-08-21T02:27:00.720Z,14.68
2022-08-21T02:29:04.076Z,14.66
2022-08-21T02:31:07.004Z,14.64
2022-08-21T02:33:10.917Z,14.63
2022-08-21T02:35:13.128Z,14.61
2022-08-21T02:37:14.629Z,14.59
2022-08-21T02:39:16.140Z,14.57
2022-08-21T02:41:28.758Z,14.56
2022-08-21T02:43:30.437Z,14.54
2022-08-21T02:45:32.390Z,14.51
2022-08-21T02:47:34.007Z,14.48
2022-08-21T02:49:35.554Z,14.45
2022-08-21T02:51:37.079Z,14.42
2022-08-21T02:53:38.636Z,14.41
2022-08-21T02:55:40.301Z,14.39
2022-08-21T02:57:41.861Z,14.38
2022-08-21T02:59:45.459Z,14.36
2022-08-21T03:01:47.026Z,14.36
2022-08-21T03:03:52.367Z,14.38
2022-08-21T03:05:53.945Z,14.40
2022-08-21T03:07:55.606Z,14.42
2022-08-21T03:09:57.139Z,14.43
2022-08-21T03:11:58.706Z,14.45
2022-08-21T03:14:00.343Z,14.45
2022-08-21T03:16:02.014Z,14.44
2022-08-21T03:18:08.126Z,14.43
2022-08-21T03:20:10.711Z,14.42
2022-08-21T03:22:12.237Z,14.41
2022-08-21T03:24:13.724Z,14.40
2022-08-21T03:26:15.315Z,14.38
2022-08-21T03:28:20.799Z,14.38
2022-08-21T03:30:23.408Z,14.38
2022-08-21T03:32:24.903Z,14.38
2022-08-21T03:34:26.430Z,14.36
2022-08-21T03:36:27.965Z,14.34
2022-08-21T03:38:32.295Z,14.31
2022-08-21T03:40:33.827Z,14.27
2022-08-21T03:42:35.851Z,14.26
2022-08-21T03:44:38.473Z,14.23
2022-08-21T03:46:41.119Z,14.21
2022-08-21T03:48:42.648Z,14.20
2022-08-21T03:50:45.077Z,14.22
2022-08-21T03:52:46.566Z,14.22
2022-08-21T03:54:48.233Z,14.24
2022-08-21T03:56:50.362Z,14.24
2022-08-21T03:58:52.347Z,14.23
2022-08-21T04:00:56.472Z,14.26
2022-08-21T04:02:58.127Z,14.27
2022-08-21T04:04:59.724Z,14.28
2022-08-21T04:07:01.317Z,14.31
2022-08-21T04:09:03.127Z,14.32
2022-08-21T04:11:06.537Z,14.32
2022-08-21T04:13:09.216Z,14.32
2022-08-21T04:15:10.896Z,14.32
2022-08-21T04:17:12.385Z,14.33
2022-08-21T04:19:15.007Z,14.32
2022-08-21T04:21:16.678Z,14.32
2022-08-21T04:23:23.545Z,14.32
2022-08-21T04:25:28.710Z,14.30
2022-08-21T04:27:30.186Z,14.28
2022-08-21T04:29:31.684Z,14.29
2022-08-21T04:31:34.472Z,14.25
2022-08-21T04:33:36.191Z,14.25
2022-08-21T04:35:37.754Z,14.23
2022-08-21T04:37:42.038Z,14.21
2022-08-21T04:39:44.113Z,14.18
2022-08-21T04:41:45.640Z,14.16
2022-08-21T04:43:47.555Z,14.17
2022-08-21T04:45:50.220Z,14.20
2022-08-21T04:47:53.702Z,14.18
2022-08-21T04:49:55.188Z,14.17
2022-08-21T04:51:56.790Z,14.17
2022-08-21T04:54:13.026Z,14.17
2022-08-21T04:56:22.932Z,14.18
2022-08-21T04:58:27.964Z,14.22
2022-08-21T05:00:29.633Z,14.31
2022-08-21T05:02:33.933Z,14.41
2022-08-21T05:04:38.955Z,14.50
2022-08-21T05:06:45.087Z,14.60
2022-08-21T05:08:49.849Z,14.68
2022-08-21T05:10:51.564Z,14.72
2022-08-21T05:12:53.838Z,14.72
2022-08-21T05:14:55.396Z,14.70
2022-08-21T05:16:56.928Z,14.69
2022-08-21T05:18:59.627Z,14.73
2022-08-21T05:21:01.143Z,14.77
2022-08-21T05:23:08.984Z,14.82
2022-08-21T05:25:11.341Z,14.84
2022-08-21T05:27:12.843Z,14.88
2022-08-21T05:29:20.117Z,14.93
2022-08-21T05:31:21.706Z,14.98
2022-08-21T05:33:23.436Z,15.04
2022-08-21T05:35:25.288Z,15.11
2022-08-21T05:37:26.804Z,15.15
2022-08-21T05:39:28.317Z,15.20
2022-08-21T05:41:50.283Z,15.23
2022-08-21T05:43:52.000Z,15.25
2022-08-21T05:45:53.639Z,15.27
2022-08-21T05:47:55.311Z,15.32
2022-08-21T05:49:56.796Z,15.37
2022-08-21T05:51:58.417Z,15.37
2022-08-21T05:53:59.940Z,15.39
2022-08-21T05:56:04.517Z,15.44
2022-08-21T05:58:06.177Z,15.48
2022-08-21T06:00:13.454Z,15.55
2022-08-21T06:02:15.581Z,15.60
2022-08-21T06:04:17.328Z,15.67
2022-08-21T06:06:18.855Z,15.72
2022-08-21T06:08:21.423Z,15.79
2022-08-21T06:10:23.028Z,15.87
2022-08-21T06:12:25.809Z,15.91
2022-08-21T06:14:27.269Z,15.99
2022-08-21T06:16:30.226Z,16.05
2022-08-21T06:18:31.871Z,16.10
2022-08-21T06:20:33.971Z,16.17
2022-08-21T06:22:35.481Z,16.22
2022-08-21T06:24:37.151Z,16.26
2022-08-21T06:26:39.094Z,16.33
2022-08-21T06:28:41.743Z,16.38
2022-08-21T06:30:43.568Z,16.46
2022-08-21T06:32:45.229Z,16.50
2022-08-21T06:34:46.718Z,16.56
2022-08-21T06:36:48.249Z,16.66
2022-08-21T06:38:51.931Z,16.75
2022-08-21T06:40:53.558Z,16.82
2022-08-21T06:42:55.294Z,16.88
2022-08-21T06:44:59.221Z,16.93
2022-08-21T06:47:00.823Z,17.03
2022-08-21T06:49:02.321Z,17.11
2022-08-21T06:51:03.956Z,17.19
2022-08-21T06:53:11.621Z,17.20
2022-08-21T06:55:13.281Z,17.25
2022-08-21T06:57:23.360Z,17.36
2022-08-21T06:59:24.885Z,17.43
2022-08-21T07:01:27.763Z,17.54
2022-08-21T07:03:40.653Z,17.63
2022-08-21T07:05:42.126Z,17.72
2022-08-21T07:07:44.100Z,17.80
2022-08-21T07:09:48.769Z,17.88
2022-08-21T07:11:54.294Z,17.96
2022-08-21T07:13:57.473Z,18.03
2022-08-21T07:16:03.668Z,18.10
2022-08-21T07:18:06.626Z,18.19
2022-08-21T07:20:08.544Z,18.28
2022-08-21T07:22:10.162Z,18.36
2022-08-21T07:24:11.744Z,18.45
2022-08-21T07:26:15.169Z,18.54
2022-08-21T07:28:16.650Z,18.64
2022-08-21T07:30:18.226Z,18.72
2022-08-21T07:32:21.466Z,18.78
2022-08-21T07:34:23.059Z,18.86
2022-08-21T07:36:24.975Z,18.96
2022-08-21T07:38:26.821Z,19.05
2022-08-21T07:40:28.329Z,19.12
2022-08-21T07:42:29.936Z,19.21
2022-08-21T07:44:31.500Z,19.32
2022-08-21T07:46:33.186Z,19.34
2022-08-21T07:48:34.685Z,19.37
2022-08-21T07:50:36.601Z,19.44
2022-08-21T07:52:38.081Z,19.50
2022-08-21T07:54:39.632Z,19.52
2022-08-21T07:56:41.256Z,19.58
2022-08-21T07:58:42.738Z,19.63
2022-08-21T08:00:44.367Z,19.65
2022-08-21T08:02:50.387Z,19.69
2022-08-21T08:04:52.215Z,19.74
2022-08-21T08:06:54.030Z,19.81
2022-08-21T08:08:55.584Z,19.86
2022-08-21T08:10:58.938Z,19.93
2022-08-21T08:13:00.736Z,19.99
2022-08-21T08:15:04.139Z,20.08
2022-08-21T08:17:05.732Z,20.15
2022-08-21T08:19:07.231Z,20.21
2022-08-21T08:21:10.082Z,20.26
2022-08-21T08:23:13.539Z,20.31
2022-08-21T08:25:15.696Z,20.34
2022-08-21T08:27:18.196Z,20.37
2022-08-21T08:29:19.660Z,20.43
2022-08-21T08:31:21.276Z,20.42
2022-08-21T08:33:23.358Z,20.50
2022-08-21T08:35:26.044Z,20.57
2022-08-21T08:37:31.523Z,20.65
2022-08-21T08:39:36.578Z,20.69
2022-08-21T08:41:38.669Z,20.73
2022-08-21T08:43:43.577Z,20.80
2022-08-21T08:45:50.415Z,20.85
2022-08-21T08:48:01.172Z,20.94
2022-08-21T08:50:08.416Z,20.94
2022-08-21T08:52:22.089Z,21.04
2022-08-21T08:54:36.407Z,21.20
2022-08-21T08:56:38.071Z,21.30
2022-08-21T08:58:44.530Z,21.35
2022-08-21T09:00:50.029Z,21.41
2022-08-21T09:02:58.042Z,21.43
2022-08-21T09:05:00.844Z,21.40
2022-08-21T09:07:46.250Z,21.24
2022-08-21T09:10:11.743Z,21.20
2022-08-21T09:12:19.686Z,21.28
2022-08-21T09:14:55.754Z,21.47
2022-08-21T09:17:11.804Z,21.71
2022-08-21T09:19:24.787Z,21.74
2022-08-21T09:22:00.632Z,21.71
2022-08-21T09:24:16.273Z,21.74
2022-08-21T09:26:24.571Z,21.73
2022-08-21T09:28:27.452Z,21.54
2022-08-21T09:30:31.998Z,21.46
2022-08-21T09:32:37.781Z,21.40
2022-08-21T09:34:39.624Z,21.35
2022-08-21T09:36:46.450Z,21.31
2022-08-21T09:38:54.254Z,21.28
2022-08-21T09:41:13.974Z,21.37
2022-08-21T09:43:15.407Z,21.53
2022-08-21T09:45:19.484Z,21.64
2022-08-21T09:47:26.208Z,21.67
2022-08-21T09:49:37.943Z,21.64
2022-08-21T09:51:39.443Z,21.67
2022-08-21T09:53:52.614Z,21.70
2022-08-21T09:56:24.198Z,21.84
2022-08-21T09:58:35.025Z,22.07
2022-08-21T10:00:37.133Z,22.27
2022-08-21T10:02:39.255Z,22.38
2022-08-21T10:04:42.705Z,22.42
2022-08-21T10:06:44.196Z,22.36
2022-08-21T10:08:45.696Z,22.17
2022-08-21T10:10:52.599Z,22.05
2022-08-21T10:13:12.735Z,21.82
2022-08-21T10:15:28.912Z,21.71
2022-08-21T10:17:45.711Z,21.74
2022-08-21T10:20:10.428Z,21.70
2022-08-21T10:22:41.616Z,21.78
2022-08-21T10:25:04.340Z,21.87
2022-08-21T10:27:24.012Z,21.96
2022-08-21T10:29:52.667Z,22.07
2022-08-21T10:31:56.953Z,22.01
2022-08-21T10:34:21.608Z,22.05
2022-08-21T10:36:36.597Z,22.29
2022-08-21T10:39:17.708Z,22.46
2022-08-21T10:41:59.583Z,22.67
2022-08-21T10:44:33.649Z,22.97
2022-08-21T10:46:50.294Z,23.26
2022-08-21T10:48:59.672Z,23.64
2022-08-21T10:51:12.648Z,23.81
2022-08-21T10:53:26.434Z,23.47
2022-08-21T10:55:32.781Z,23.30
2022-08-21T10:57:43.931Z,23.55
2022-08-21T10:59:54.849Z,23.76
2022-08-21T11:02:31.841Z,24.24
2022-08-21T11:04:53.360Z,24.76
2022-08-21T11:07:03.752Z,24.49
2022-08-21T11:09:15.991Z,24.17
2022-08-21T11:11:29.408Z,23.91
2022-08-21T11:13:48.794Z,24.04
2022-08-21T11:16:30.535Z,24.66
2022-08-21T11:18:47.226Z,25.12
2022-08-21T11:21:17.318Z,25.22
2022-08-21T11:23:26.162Z,25.28
2022-08-21T11:25:36.902Z,25.02
2022-08-21T11:27:57.074Z,25.14
2022-08-21T11:30:00.877Z,25.45
2022-08-21T11:32:11.421Z,25.56
2022-08-21T11:34:31.375Z,25.72
2022-08-21T11:39:27.845Z,25.77
2022-08-21T11:41:35.482Z,25.53
2022-08-21T11:43:47.599Z,25.19
2022-08-21T11:46:00.853Z,25.25
2022-08-21T11:48:13.500Z,25.39
2022-08-21T11:50:34.855Z,25.71
2022-08-21T11:53:03.511Z,25.73
2022-08-21T11:55:16.438Z,25.79
2022-08-21T11:57:36.669Z,25.75
2022-08-21T11:59:53.526Z,25.49
2022-08-21T12:01:55.455Z,25.43
2022-08-21T12:04:03.329Z,25.35
2022-08-21T12:06:24.271Z,25.50
2022-08-21T12:08:53.534Z,25.55
2022-08-21T12:11:21.222Z,25.19
2022-08-21T12:13:40.067Z,25.19
2022-08-21T12:15:42.308Z,25.14
2022-08-21T12:18:27.112Z,25.41
2022-08-21T12:20:40.001Z,25.33
2022-08-21T12:23:04.375Z,24.93
2022-08-21T12:25:11.561Z,24.78
2022-08-21T12:27:32.289Z,24.64
2022-08-21T12:29:38.156Z,24.60
2022-08-21T12:32:07.726Z,24.42
2022-08-21T12:34:11.484Z,24.17
2022-08-21T12:36:16.810Z,24.12
2022-08-21T12:38:27.745Z,24.02
2022-08-21T12:40:42.618Z,24.07
2022-08-21T12:42:58.658Z,24.22
2022-08-21T12:45:05.960Z,24.42
2022-08-21T12:47:37.574Z,24.55
2022-08-21T12:49:59.140Z,24.58
2022-08-21T12:52:28.794Z,24.53
2022-08-21T12:54:39.118Z,24.58
2022-08-21T12:56:40.866Z,24.56
2022-08-21T12:58:47.721Z,24.38
2022-08-21T13:01:02.627Z,24.16
2022-08-21T13:03:04.494Z,24.00
2022-08-21T13:05:08.622Z,24.05
2022-08-21T13:07:17.113Z,24.16
2022-08-21T13:09:26.892Z,24.18
2022-08-21T13:11:33.724Z,24.22
2022-08-21T13:13:35.746Z,24.24
2022-08-21T13:15:47.735Z,24.35
2022-08-21T13:17:51.936Z,24.31
2022-08-21T13:20:06.278Z,24.36
2022-08-21T13:22:33.541Z,24.51
2022-08-21T13:24:42.718Z,24.48
2022-08-21T13:26:45.457Z,24.46
2022-08-21T13:28:48.508Z,24.30
2022-08-21T13:30:56.625Z,24.16
2022-08-21T13:33:09.757Z,24.08
2022-08-21T13:35:21.904Z,24.08
2022-08-21T13:37:25.978Z,24.12
2022-08-21T13:39:27.918Z,24.17
2022-08-21T13:41:36.058Z,24.19
2022-08-21T13:43:38.506Z,24.29
2022-08-21T13:45:40.041Z,24.45
2022-08-21T13:47:42.610Z,24.48
2022-08-21T13:49:47.433Z,24.50
2022-08-21T13:51:49.269Z,24.41
2022-08-21T13:53:53.399Z,24.39
2022-08-21T13:55:59.975Z,24.40
2022-08-21T13:58:04.578Z,24.46
2022-08-21T14:00:12.808Z,24.55
2022-08-21T14:02:19.161Z,24.58
2022-08-21T14:04:36.909Z,24.59
2022-08-21T14:06:39.206Z,24.58
2022-08-21T14:08:44.209Z,24.70
2022-08-21T14:10:57.168Z,24.61
2022-08-21T14:13:03.493Z,24.59
2022-08-21T14:15:06.402Z,24.60
2022-08-21T14:17:24.366Z,24.56
2022-08-21T14:19:39.908Z,24.58
2022-08-21T14:21:46.943Z,24.64
2022-08-21T14:23:48.447Z,24.68
2022-08-21T14:25:50.084Z,24.79
2022-08-21T14:27:55.608Z,24.90
2022-08-21T14:30:04.504Z,24.98
2022-08-21T14:32:21.891Z,24.99
2022-08-21T14:34:34.095Z,25.04
2022-08-21T14:36:37.380Z,25.03
2022-08-21T14:38:41.267Z,24.95
2022-08-21T14:40:43.850Z,24.98
2022-08-21T14:42:46.717Z,25.06
2022-08-21T14:44:48.489Z,25.05
2022-08-21T14:46:56.097Z,25.07
2022-08-21T14:48:59.018Z,25.03
2022-08-21T14:51:00.908Z,25.00
2022-08-21T14:53:04.906Z,25.08
2022-08-21T14:55:17.398Z,25.11
2022-08-21T14:57:19.567Z,25.04
2022-08-21T14:59:21.858Z,25.03
2022-08-21T15:01:23.888Z,25.07
2022-08-21T15:03:26.934Z,25.13
2022-08-21T15:05:32.956Z,25.22
2022-08-21T15:07:34.710Z,25.21
2022-08-21T15:09:36.267Z,25.22
2022-08-21T15:11:41.980Z,25.22
2022-08-21T15:13:44.786Z,25.19
2022-08-21T15:15:48.999Z,25.10
2022-08-21T15:17:50.560Z,24.98
2022-08-21T15:19:52.074Z,24.85
2022-08-21T15:21:54.154Z,24.77
2022-08-21T15:23:55.781Z,24.78
2022-08-21T15:25:58.628Z,24.78
2022-08-21T15:28:02.460Z,24.81
2022-08-21T15:30:05.224Z,24.80
2022-08-21T15:32:18.101Z,24.71
2022-08-21T15:34:20.460Z,24.60
2022-08-21T15:36:24.809Z,24.63
2022-08-21T15:38:26.506Z,24.76
2022-08-21T15:40:28.518Z,24.84
2022-08-21T15:42:30.387Z,24.85
2022-08-21T15:44:31.941Z,24.86
2022-08-21T15:46:33.507Z,24.87
2022-08-21T15:48:34.972Z,24.90
2022-08-21T15:50:37.015Z,24.87
2022-08-21T15:52:40.082Z,24.83
2022-08-21T15:54:42.285Z,24.80
2022-08-21T15:56:48.280Z,24.74
2022-08-21T15:58:53.202Z,24.71
2022-08-21T16:00:54.816Z,24.67
2022-08-21T16:02:59.244Z,24.68
2022-08-21T16:05:01.053Z,24.73
2022-08-21T16:07:06.648Z,24.91
2022-08-21T16:09:10.800Z,24.85
2022-08-21T16:11:16.650Z,24.83
2022-08-21T16:13:33.402Z,24.85
2022-08-21T16:15:35.012Z,24.81
2022-08-21T16:17:37.907Z,24.76
2022-08-21T16:19:39.792Z,24.73
2022-08-21T16:21:41.749Z,24.68
2022-08-21T16:23:44.040Z,24.71
2022-08-21T16:25:45.810Z,24.72
2022-08-21T16:27:59.505Z,24.77
2022-08-21T16:30:02.324Z,24.76
2022-08-21T16:32:05.186Z,24.87
2022-08-21T16:34:06.776Z,24.78
2022-08-21T16:36:09.662Z,24.62
2022-08-21T16:38:11.177Z,24.55
2022-08-21T16:40:13.387Z,24.48
2022-08-21T16:42:19.709Z,24.41
2022-08-21T16:44:24.383Z,24.34
2022-08-21T16:46:26.452Z,24.37
2022-08-21T16:48:32.345Z,24.37
2022-08-21T16:50:33.803Z,24.29
2022-08-21T16:52:35.416Z,24.29
2022-08-21T16:54:37.395Z,24.34
2022-08-21T16:56:41.377Z,24.29
2022-08-21T16:58:48.107Z,24.23
2022-08-21T17:00:49.793Z,24.19
2022-08-21T17:02:54.757Z,24.18
2022-08-21T17:04:56.324Z,24.13
2022-08-21T17:06:57.887Z,24.10
2022-08-21T17:09:01.080Z,24.07
2022-08-21T17:11:04.717Z,24.05
2022-08-21T17:13:09.660Z,24.07
2022-08-21T17:15:21.612Z,24.02
2022-08-21T17:17:23.253Z,24.02
2022-08-21T17:19:24.892Z,23.96
2022-08-21T17:21:26.637Z,23.81
2022-08-21T17:23:28.213Z,23.71
2022-08-21T17:25:30.597Z,23.62
2022-08-21T17:27:32.097Z,23.47
2022-08-21T17:29:39.883Z,23.39
2022-08-21T17:31:42.866Z,23.35
2022-08-21T17:33:52.091Z,23.37
2022-08-21T17:35:54.007Z,23.32
2022-08-21T17:37:55.566Z,23.24
2022-08-21T17:39:58.635Z,23.15
2022-08-21T17:42:05.357Z,23.08
2022-08-21T17:44:10.691Z,23.12
2022-08-21T17:46:19.088Z,23.16
2022-08-21T17:48:25.337Z,23.16
2022-08-21T17:50:27.146Z,23.22
2022-08-21T17:52:28.801Z,23.14
2022-08-21T17:54:30.330Z,23.08
2022-08-21T17:56:35.272Z,22.93
2022-08-21T17:58:37.219Z,22.71
2022-08-21T18:00:39.165Z,22.65
2022-08-21T18:02:43.461Z,22.54
2022-08-21T18:04:44.968Z,22.44
2022-08-21T18:06:46.552Z,22.41
2022-08-21T18:08:48.136Z,22.36
2022-08-21T18:10:50.469Z,22.17
2022-08-21T18:12:52.511Z,22.07
2022-08-21T18:14:54.087Z,22.07
2022-08-21T18:16:56.314Z,22.05
2022-08-21T18:18:58.239Z,22.01
2022-08-21T18:20:59.798Z,22.07
2022-08-21T18:23:01.677Z,22.09
2022-08-21T18:25:05.423Z,22.08
2022-08-21T18:27:09.709Z,22.10
2022-08-21T18:29:16.883Z,22.04
2022-08-21T18:31:19.373Z,21.94
2022-08-21T18:33:21.717Z,21.85
2022-08-21T18:35:23.465Z,21.85
2022-08-21T18:37:25.088Z,21.87
2022-08-21T18:39:36.404Z,21.86
2022-08-21T18:41:38.487Z,21.89
2022-08-21T18:43:39.986Z,21.81
2022-08-21T18:45:41.959Z,21.81
2022-08-21T18:47:50.121Z,21.81
2022-08-21T18:49:52.018Z,21.81
2022-08-21T18:51:53.592Z,21.80
2022-08-21T18:53:56.198Z,21.79
2022-08-21T18:56:04.869Z,21.75
2022-08-21T18:58:07.552Z,21.80
2022-08-21T19:00:13.126Z,21.88
2022-08-21T19:02:16.132Z,21.84
2022-08-21T19:04:41.159Z,21.77
2022-08-21T19:06:41.049Z,21.70
2022-08-21T19:08:47.888Z,21.73
2022-08-21T19:10:53.494Z,21.77
2022-08-21T19:12:57.851Z,21.73
2022-08-21T19:15:00.155Z,21.76
2022-08-21T19:17:02.766Z,21.72
2022-08-21T19:19:06.801Z,21.75
2022-08-21T19:21:08.827Z,21.71
2022-08-21T19:23:13.110Z,21.68
2022-08-21T19:25:14.612Z,21.61
2022-08-21T19:27:16.188Z,21.56
2022-08-21T19:29:19.770Z,21.57
2022-08-21T19:31:27.951Z,21.55
2022-08-21T19:33:37.514Z,21.51
2022-08-21T19:35:41.131Z,21.50
2022-08-21T19:37:42.714Z,21.45
2022-08-21T19:39:48.782Z,21.38
2022-08-21T19:41:57.307Z,21.36
2022-08-21T19:44:04.188Z,21.35
2022-08-21T19:46:05.778Z,21.33
2022-08-21T19:48:07.365Z,21.27
2022-08-21T19:52:32.692Z,21.28
2022-08-21T19:54:37.561Z,21.27
2022-08-21T19:56:39.167Z,21.21
2022-08-21T19:58:42.875Z,21.19
2022-08-21T20:00:44.405Z,21.20
2022-08-21T20:02:48.226Z,21.16
2022-08-21T20:07:11.434Z,21.10
2022-08-21T20:09:16.969Z,21.07
2022-08-21T20:11:32.974Z,21.06
2022-08-21T20:13:34.917Z,21.01
2022-08-21T20:15:36.505Z,20.97
2022-08-21T20:17:39.129Z,20.95
2022-08-21T20:19:43.687Z,20.89
2022-08-21T20:21:45.592Z,20.84
2022-08-21T20:26:10.227Z,20.76
2022-08-21T20:28:13.096Z,20.70
2022-08-21T20:30:16.524Z,20.65
2022-08-21T20:32:24.278Z,20.67
2022-08-21T20:34:26.316Z,20.62
2022-08-21T20:36:28.165Z,20.61
2022-08-21T20:38:29.701Z,20.61
2022-08-21T20:40:32.948Z,20.58
2022-08-21T20:42:34.596Z,20.59
2022-08-21T20:44:37.656Z,20.56
2022-08-21T20:46:48.473Z,20.52
2022-08-21T20:48:52.855Z,20.48
2022-08-21T20:51:08.376Z,20.48
2022-08-21T20:53:46.307Z,20.44
2022-08-21T20:55:51.069Z,20.39
2022-08-21T20:58:03.014Z,20.34
2022-08-21T21:00:14.447Z,20.29
2022-08-21T21:02:16.307Z,20.25
2022-08-21T21:04:37.235Z,20.22
2022-08-21T21:06:41.149Z,20.18
2022-08-21T21:08:54.141Z,20.14
2022-08-21T21:11:13.729Z,20.12
2022-08-21T21:13:20.411Z,20.10
2022-08-21T21:15:30.167Z,20.06
2022-08-21T21:17:37.991Z,20.04
2022-08-21T21:19:53.686Z,20.00
2022-08-21T21:22:02.745Z,19.95
2022-08-21T21:24:18.984Z,19.87
2022-08-21T21:26:46.184Z,19.77
2022-08-21T21:28:50.183Z,19.72
2022-08-21T21:30:57.598Z,19.69
2022-08-21T21:32:59.960Z,19.65
2022-08-21T21:35:04.793Z,19.60
2022-08-21T21:37:07.858Z,19.58
2022-08-21T21:42:30.298Z,19.47
2022-08-21T21:45:17.081Z,19.40
2022-08-21T21:47:31.459Z,19.35
2022-08-21T21:49:42.882Z,19.33
2022-08-21T21:52:03.256Z,19.31
2022-08-21T21:54:22.585Z,19.28
2022-08-21T21:56:34.101Z,19.23
2022-08-21T21:59:08.263Z,19.18
2022-08-21T22:01:23.933Z,19.11
2022-08-21T22:03:38.263Z,19.06
2022-08-21T22:06:01.123Z,19.05
2022-08-21T22:08:12.741Z,19.05
2022-08-21T22:10:30.563Z,19.05
2022-08-21T22:12:56.621Z,19.03
2022-08-21T22:15:11.159Z,18.96
2022-08-21T22:17:29.790Z,18.92
2022-08-21T22:19:38.726Z,18.90
2022-08-21T22:21:49.179Z,18.92
2022-08-21T22:23:54.161Z,18.92
2022-08-21T22:26:03.443Z,18.91
2022-08-21T22:28:11.384Z,18.91
2022-08-21T22:30:35.990Z,18.91
2022-08-21T22:32:46.917Z,18.89
2022-08-21T22:35:09.500Z,18.89
2022-08-21T22:37:12.812Z,18.88
2022-08-21T22:39:27.827Z,18.91
2022-08-21T22:41:37.587Z,18.93
2022-08-21T22:43:55.651Z,18.94
2022-08-21T22:46:05.858Z,18.95
2022-08-21T22:48:22.406Z,18.94
2022-08-21T22:50:24.258Z,18.93
2022-08-21T22:52:51.954Z,18.90
2022-08-21T22:55:01.312Z,18.86
2022-08-21T22:57:12.278Z,18.82
2022-08-21T22:59:25.366Z,18.83
2022-08-21T23:01:26.818Z,18.85
2022-08-21T23:03:33.811Z,18.86
2022-08-21T23:05:36.550Z,18.88
2022-08-21T23:07:44.381Z,18.89
2022-08-21T23:09:53.358Z,18.90
2022-08-21T23:11:58.168Z,18.88
2022-08-21T23:14:00.054Z,18.85
2022-08-21T23:16:12.239Z,18.84
2022-08-21T23:18:33.884Z,18.81
2022-08-21T23:20:57.682Z,18.78
2022-08-21T23:23:17.843Z,18.77
2022-08-21T23:25:22.379Z,18.77
2022-08-21T23:27:42.191Z,18.77
2022-08-21T23:30:05.495Z,18.76
2022-08-21T23:32:20.597Z,18.73
2022-08-21T23:34:37.302Z,18.68
2022-08-21T23:37:48.461Z,18.64
2022-08-21T23:40:13.035Z,18.63
2022-08-21T23:42:58.395Z,18.64
2022-08-21T23:45:17.371Z,18.66
2022-08-21T23:47:50.944Z,18.61
2022-08-21T23:50:13.861Z,18.60
2022-08-21T23:52:36.667Z,18.59
2022-08-21T23:55:03.791Z,18.60
2022-08-21T23:57:40.303Z,18.63
